Relevés horaires Matro (Suisse)


Relevés horaires à Matro - Lundi 29 Avr. 2019
Heure UTC1 Température [°C] Vent [km/h] Hum. [%] Pres.4 [hPa] Visi. [Km] Nébu. [octa] Préc.5 [mm] Cond.
2m. Res. Ros. Dir.2 Vit. Moy. Raf.3
23:00 -3.1 -11.3 -7.8 NNO 37.0 -- 64.8 70 850(0.2/3h) -- -- -- --
22:00 -3.0 -11.1 -7.7 NNO 37.0 -- 63.0 70 850(1.0/3h) -- -- -- --
21:00 -3.0 -12.1 -7.5 NNO 48.2 -- 72.2 71 850(1.1/3h) -- -- -- --
20:00 -2.7 -11.5 -8.2 NNO 46.3 -- 68.5 66 850(0.9/3h) -- -- -- --
19:00 -2.7 -11.5 -7.8 NNO 46.3 -- 72.2 68 850(-0.2/3h) -- -- -- --
18:00 -2.3 -11.7 -8.3 NNO 55.6 -- 74.1 63 850(-0.7/3h) -- -- -- --
17:00 -2.2 -11.1 -7.9 NNO 50.0 -- 64.8 65 850(-0.6/3h) -- -- -- --
16:00 -1.8 -9.9 -8.7 NNO 40.7 -- 61.1 59 850(-0.4/3h) -- -- -- --
15:00 -1.5 -8.6 -8.2 NNO 31.5 -- 57.4 60 850(-0.4/3h) -- -- -- --
14:00 -1.4 -8.5 -8.0 NNO 31.5 -- 48.2 61 850(-0.3/3h) -- -- -- --
13:00 -1.7 -9.2 -8.5 NNO 35.2 -- 57.4 60 850(0.1/3h) -- -- -- --
12:00 -1.8 -9.5 -8.6 NNO 37.0 -- 66.7 60 850(0.4/3h) -- -- -- --
11:00 -2.5 -9.9 -9.4 NNO 31.5 -- 59.3 59 850(0.9/3h) -- -- -- --
10:00 -2.9 -11.3 -9.1 NNO 40.7 -- 61.1 62 850(1.2/3h) -- -- -- --
09:00 -3.3 -11.7 -9.6 NNO 38.9 -- 66.7 62 850(1.4/3h) -- -- -- --
08:00 -3.2 -11 -10.3 NNO 33.3 -- 61.1 58 850(1.5/3h) -- -- -- --
07:00 -4.0 -12.8 -10.8 NNO 40.7 -- 66.7 59 850(1.4/3h) -- -- -- --
06:00 -4.5 -13.5 -11.4 NNO 40.7 -- 77.8 58 850(0.9/3h) -- -- -- --
05:00 -4.8 -14.5 -11.9 NNO 48.2 -- 72.2 57 850(0.1/3h) -- -- -- --
04:00 -5.2 -14.4 -10.6 NNO 40.7 -- 74.1 66 850(-0.5/3h) -- -- -- --
03:00 -5.2 -14.9 -9.9 NNO 46.3 -- 74.1 69 850(-0.6/3h) -- -- -- --
02:00 -5.0 -14.1 -10.3 NNO 40.7 -- 72.2 66 850(-0.5/3h) -- -- -- --
01:00 -5.4 -13.7 -9.5 NNO 31.5 -- 48.2 73 850(-0.6/3h) -- -- -- --
00:00 -5.4 -14.7 -9.7 NNO 40.7 -- 68.5 72 850(-0.5/3h) -- -- -- --

1 Coordinated Universal Time. Actuellement il est 20:00 locale et 18:00 UTC.

2 Le vent souffle depuis la direction indiquée vers la direction oposée.

3 Les rafales max. sont disponible 40 min après l'heure du relevé.

4 Pour les stations d'altitude (plus de 600m) le géopotentiel du niveau le plus proche de la pression obligatoire est indiqué.

5 Les stations disposant d'un diffuseur peuvent indiquer "trace". Cela signifie que des précipitations ont touchés le sol mais que la quantité est inférieure à 0.1 mm.

Copyright

Les données affichées sur cette page sont la propriété exclusive de Météo Suisse.

Récapitulatif de la journée
Température [°C] Vent [km/h] Ensoleillement4 [h] Precipitations totale5 [mm] Pression [Hpa]
Min1 Max.2 Moy.3 Max. Min Max.
-5.6 -1.3 0 77.8 8 h 0 min 0 850.0 850.0

1 Température minimale relevée entre 18:00 UTC la veille et 18:00 UTC le jour donné.

2 Température maximale relevée entre 06:00 UTC le jour donné et 06:00 UTC le lendemain.

3 Vent moyen de la journée basé sur les relevés horaires.

4 Ensoleillement en heures relevé entre 06:00 UTC la veille et 06:00 UTC le jour donné.

5 Précipitations totales tombées entre 06:00 UTC la jour donné et 06:00 UTC le lendemain.

Graphiques horaires